createdAt,value
2022-08-08T00:00:55.093Z,97406.28
2022-08-08T00:03:20.032Z,97407.19
2022-08-08T00:06:04.528Z,97409.72
2022-08-08T00:08:43.559Z,97419.75
2022-08-08T00:11:46.867Z,97414.56
2022-08-08T00:14:48.710Z,97421.22
2022-08-08T00:17:58.307Z,97414.44
2022-08-08T00:20:26.191Z,97414.78
2022-08-08T00:22:59.194Z,97416.53
2022-08-08T00:25:45.085Z,97423.19
2022-08-08T00:28:35.803Z,97418.25
2022-08-08T00:32:32.546Z,97424.91
2022-08-08T00:35:06.494Z,97425.38
2022-08-08T00:38:01.464Z,97426.16
2022-08-08T00:41:14.723Z,97412.16
2022-08-08T00:44:26.060Z,97416.19
2022-08-08T00:48:02.198Z,97409.97
2022-08-08T00:51:42.941Z,97418.13
2022-08-08T00:54:54.414Z,97412.97
2022-08-08T00:58:30.657Z,97412.75
2022-08-08T01:01:29.439Z,97414.09
2022-08-08T01:04:57.885Z,97409.19
2022-08-08T01:08:03.149Z,97405.16
2022-08-08T01:11:23.034Z,97400.47
2022-08-08T01:15:00.647Z,97403.91
2022-08-08T01:18:50.779Z,97401.94
2022-08-08T01:22:07.381Z,97405.84
2022-08-08T01:25:09.360Z,97404.03
2022-08-08T01:28:18.613Z,97404.22
2022-08-08T01:32:13.850Z,97398.16
2022-08-08T01:35:11.902Z,97412.03
2022-08-08T01:38:28.221Z,97409.28
2022-08-08T01:41:11.517Z,97409.97
2022-08-08T01:43:53.455Z,97412.72
2022-08-08T01:46:52.098Z,97409.88
2022-08-08T01:49:46.876Z,97409.88
2022-08-08T01:54:01.478Z,97403.53
2022-08-08T01:56:28.799Z,97405.16
2022-08-08T01:58:46.924Z,97403.78
2022-08-08T02:02:00.347Z,97404.91
2022-08-08T02:04:36.640Z,97410.66
2022-08-08T02:07:19.179Z,97403.78
2022-08-08T02:10:37.126Z,97417.78
2022-08-08T02:13:52.889Z,97416.75
2022-08-08T02:16:24.878Z,97423.16
2022-08-08T02:19:41.812Z,97420.41
2022-08-08T02:22:28.258Z,97420.88
2022-08-08T02:25:15.106Z,97420.44
2022-08-08T02:27:59.000Z,97426.75
2022-08-08T02:31:02.255Z,97418.38
2022-08-08T02:34:08.079Z,97418.91
2022-08-08T02:36:47.215Z,97419.50
2022-08-08T02:40:00.098Z,97423.25
2022-08-08T02:44:38.438Z,97425.56
2022-08-08T02:46:35.701Z,97420.06
2022-08-08T02:49:51.700Z,97421.03
2022-08-08T02:52:51.566Z,97424.28
2022-08-08T02:56:09.733Z,97425.00
2022-08-08T02:59:56.791Z,97427.22
2022-08-08T03:05:00.656Z,97427.63
2022-08-08T03:06:52.608Z,97423.25
2022-08-08T03:10:33.672Z,97423.50
2022-08-08T03:15:56.777Z,97422.59
2022-08-08T03:16:59.673Z,97414.91
2022-08-08T03:20:03.780Z,97432.38
2022-08-08T03:22:38.270Z,97423.19
2022-08-08T03:25:36.131Z,97426.56
2022-08-08T03:28:13.967Z,97425.59
2022-08-08T03:30:49.362Z,97429.56
2022-08-08T03:33:54.625Z,97431.16
2022-08-08T03:36:30.474Z,97431.63
2022-08-08T03:39:07.950Z,97422.13
2022-08-08T03:42:27.536Z,97426.88
2022-08-08T03:44:39.080Z,97433.69
2022-08-08T03:47:20.123Z,97441.16
2022-08-08T03:50:00.513Z,97440.69
2022-08-08T03:52:37.207Z,97434.22
2022-08-08T03:55:56.313Z,97439.13
2022-08-08T03:58:36.418Z,97445.75
2022-08-08T04:01:22.991Z,97444.78
2022-08-08T04:03:59.599Z,97449.47
2022-08-08T04:06:40.561Z,97449.47
2022-08-08T04:09:11.708Z,97445.59
2022-08-08T04:11:58.598Z,97447.19
2022-08-08T04:14:37.423Z,97457.84
2022-08-08T04:17:22.539Z,97459.81
2022-08-08T04:19:58.141Z,97462.22
2022-08-08T04:22:29.803Z,97468.19
2022-08-08T04:24:59.961Z,97462.34
2022-08-08T04:28:01.713Z,97468.81
2022-08-08T04:30:21.820Z,97469.75
2022-08-08T04:32:54.055Z,97477.28
2022-08-08T04:35:26.791Z,97472.19
2022-08-08T04:37:58.241Z,97480.53
2022-08-08T04:40:40.817Z,97472.84
2022-08-08T04:43:22.688Z,97476.03
2022-08-08T04:46:04.843Z,97481.13
2022-08-08T04:48:35.773Z,97490.38
2022-08-08T04:51:04.488Z,97490.69
2022-08-08T04:54:26.751Z,97490.16
2022-08-08T04:56:23.381Z,97498.38
2022-08-08T04:58:51.723Z,97502.00
2022-08-08T05:01:23.070Z,97500.50
2022-08-08T05:04:08.440Z,97495.56
2022-08-08T05:06:43.921Z,97493.56
2022-08-08T05:09:13.464Z,97492.91
2022-08-08T05:11:47.586Z,97489.75
2022-08-08T05:14:26.223Z,97502.28
2022-08-08T05:17:02.023Z,97497.97
2022-08-08T05:20:10.149Z,97500.06
2022-08-08T05:22:32.861Z,97504.31
2022-08-08T05:25:03.336Z,97496.19
2022-08-08T05:27:33.053Z,97497.81
2022-08-08T05:30:03.648Z,97496.56
2022-08-08T05:32:48.246Z,97500.47
2022-08-08T05:35:24.350Z,97497.84
2022-08-08T05:38:31.306Z,97511.78
2022-08-08T05:40:59.842Z,97507.72
2022-08-08T05:43:39.545Z,97504.66
2022-08-08T05:46:26.956Z,97511.75
2022-08-08T05:48:59.484Z,97520.91
2022-08-08T05:51:48.176Z,97512.75
2022-08-08T05:54:27.508Z,97510.00
2022-08-08T05:57:16.571Z,97523.53
2022-08-08T06:00:22.894Z,97520.16
2022-08-08T06:03:23.565Z,97525.44
2022-08-08T06:06:05.085Z,97526.50
2022-08-08T06:08:54.612Z,97533.22
2022-08-08T06:11:32.981Z,97529.53
2022-08-08T06:14:07.275Z,97527.44
2022-08-08T06:16:45.086Z,97538.97
2022-08-08T06:19:35.201Z,97539.25
2022-08-08T06:22:32.328Z,97548.88
2022-08-08T06:24:58.056Z,97554.59
2022-08-08T06:27:46.151Z,97552.94
2022-08-08T06:30:20.136Z,97550.56
2022-08-08T06:33:01.010Z,97564.06
2022-08-08T06:36:06.376Z,97561.38
2022-08-08T06:38:32.986Z,97556.22
2022-08-08T06:41:07.389Z,97552.78
2022-08-08T06:43:42.007Z,97560.88
2022-08-08T06:46:23.967Z,97562.06
2022-08-08T06:48:56.063Z,97558.06
2022-08-08T06:51:25.238Z,97565.69
2022-08-08T06:54:03.137Z,97569.28
2022-08-08T06:56:37.012Z,97561.63
2022-08-08T06:59:09.989Z,97567.16
2022-08-08T07:02:27.018Z,97566.78
2022-08-08T07:04:52.248Z,97567.78
2022-08-08T07:07:35.259Z,97571.72
2022-08-08T07:10:10.465Z,97568.97
2022-08-08T07:12:47.964Z,97571.00
2022-08-08T07:16:05.925Z,97574.88
2022-08-08T07:18:57.399Z,97574.19
2022-08-08T07:21:35.842Z,97572.53
2022-08-08T07:24:11.266Z,97584.22
2022-08-08T07:27:04.930Z,97579.53
2022-08-08T07:29:59.695Z,97579.13
2022-08-08T07:32:27.403Z,97579.97
2022-08-08T07:35:02.707Z,97584.22
2022-08-08T07:37:56.508Z,97591.06
2022-08-08T07:40:35.140Z,97586.34
2022-08-08T07:43:12.299Z,97592.47
2022-08-08T07:46:05.070Z,97589.09
2022-08-08T07:48:38.555Z,97587.84
2022-08-08T07:51:22.911Z,97594.88
2022-08-08T07:54:12.552Z,97584.44
2022-08-08T07:57:16.965Z,97594.66
2022-08-08T08:00:00.068Z,97591.75
2022-08-08T08:02:41.623Z,97596.38
2022-08-08T08:05:21.346Z,97592.06
2022-08-08T08:08:03.544Z,97596.53
2022-08-08T08:10:38.446Z,97586.56
2022-08-08T08:13:25.710Z,97595.31
2022-08-08T08:16:20.343Z,97595.44
2022-08-08T08:18:56.844Z,97589.56
2022-08-08T08:21:57.721Z,97589.22
2022-08-08T08:24:42.909Z,97591.66
2022-08-08T08:27:14.960Z,97590.97
2022-08-08T08:29:50.968Z,97591.16
2022-08-08T08:32:36.272Z,97586.63
2022-08-08T08:35:15.158Z,97587.06
2022-08-08T08:38:12.964Z,97584.75
2022-08-08T08:40:35.092Z,97583.06
2022-08-08T08:43:07.874Z,97586.47
2022-08-08T08:45:41.045Z,97591.25
2022-08-08T08:48:19.355Z,97587.94
2022-08-08T08:50:53.126Z,97590.53
2022-08-08T08:53:55.407Z,97587.94
2022-08-08T08:56:24.176Z,97589.75
2022-08-08T08:58:58.945Z,97590.78
2022-08-08T09:01:38.471Z,97593.56
2022-08-08T09:04:31.147Z,97596.88
2022-08-08T09:07:12.629Z,97596.53
2022-08-08T09:09:55.380Z,97591.84
2022-08-08T09:12:35.771Z,97592.78
2022-08-08T09:15:06.472Z,97605.16
2022-08-08T09:17:52.403Z,97589.72
2022-08-08T09:21:58.981Z,97592.44
2022-08-08T09:23:25.736Z,97598.09
2022-08-08T09:26:12.492Z,97590.16
2022-08-08T09:28:44.391Z,97589.69
2022-08-08T09:31:42.194Z,97587.56
2022-08-08T09:34:32.266Z,97593.66
2022-08-08T09:37:39.675Z,97588.56
2022-08-08T09:40:11.170Z,97585.06
2022-08-08T09:42:44.302Z,97587.91
2022-08-08T09:46:01.047Z,97588.44
2022-08-08T09:48:21.033Z,97574.78
2022-08-08T09:50:56.079Z,97582.56
2022-08-08T09:53:59.029Z,97578.94
2022-08-08T09:56:25.284Z,97573.94
2022-08-08T09:59:20.186Z,97573.97
2022-08-08T10:02:03.163Z,97572.75
2022-08-08T10:04:47.745Z,97569.75
2022-08-08T10:07:18.378Z,97565.03
2022-08-08T10:10:00.912Z,97570.41
2022-08-08T10:12:53.139Z,97562.25
2022-08-08T10:15:24.516Z,97564.38
2022-08-08T10:18:10.409Z,97572.47
2022-08-08T10:20:57.466Z,97562.84
2022-08-08T10:23:46.084Z,97565.41
2022-08-08T10:26:31.001Z,97561.00
2022-08-08T10:29:20.791Z,97557.97
2022-08-08T10:32:16.107Z,97555.59
2022-08-08T10:35:00.372Z,97550.09
2022-08-08T10:37:34.611Z,97547.81
2022-08-08T10:40:17.482Z,97549.19
2022-08-08T10:42:56.753Z,97559.38
2022-08-08T10:45:25.765Z,97546.78
2022-08-08T10:48:00.278Z,97548.88
2022-08-08T10:50:37.916Z,97549.31
2022-08-08T10:53:11.609Z,97544.53
2022-08-08T10:55:46.661Z,97540.13
2022-08-08T10:58:17.003Z,97549.16
2022-08-08T11:00:53.563Z,97541.19
2022-08-08T11:04:00.774Z,97536.31
2022-08-08T11:06:35.038Z,97545.25
2022-08-08T11:09:09.690Z,97538.13
2022-08-08T11:12:04.771Z,97543.31
2022-08-08T11:14:49.442Z,97538.16
2022-08-08T11:18:00.090Z,97533.47
2022-08-08T11:20:14.022Z,97539.91
2022-08-08T11:22:52.967Z,97533.88
2022-08-08T11:25:52.717Z,97532.53
2022-08-08T11:28:22.052Z,97535.06
2022-08-08T11:30:57.853Z,97536.38
2022-08-08T11:33:51.128Z,97538.16
2022-08-08T11:36:19.583Z,97529.66
2022-08-08T11:38:55.124Z,97525.84
2022-08-08T11:41:28.018Z,97539.41
2022-08-08T11:44:02.358Z,97537.31
2022-08-08T11:46:34.988Z,97532.53
2022-08-08T11:49:09.355Z,97527.41
2022-08-08T11:51:49.834Z,97524.44
2022-08-08T11:54:33.532Z,97525.72
2022-08-08T11:57:16.942Z,97527.78
2022-08-08T12:00:01.488Z,97520.69
2022-08-08T12:02:54.620Z,97523.81
2022-08-08T12:05:34.866Z,97523.59
2022-08-08T12:08:05.460Z,97524.72
2022-08-08T12:10:36.297Z,97516.84
2022-08-08T12:13:07.211Z,97512.41
2022-08-08T12:15:42.532Z,97505.97
2022-08-08T12:18:24.463Z,97514.41
2022-08-08T12:20:56.555Z,97511.78
2022-08-08T12:23:43.377Z,97510.94
2022-08-08T12:26:27.833Z,97508.09
2022-08-08T12:29:21.485Z,97503.16
2022-08-08T12:32:02.930Z,97505.16
2022-08-08T12:34:48.483Z,97502.84
2022-08-08T12:37:23.009Z,97500.91
2022-08-08T12:40:01.070Z,97498.47
2022-08-08T12:42:33.587Z,97495.94
2022-08-08T12:45:58.873Z,97495.34
2022-08-08T12:48:09.864Z,97498.97
2022-08-08T12:50:50.923Z,97488.94
2022-08-08T12:53:36.381Z,97485.00
2022-08-08T12:56:19.234Z,97483.25
2022-08-08T12:58:55.230Z,97479.28
2022-08-08T13:01:37.579Z,97481.00
2022-08-08T13:04:18.380Z,97479.94
2022-08-08T13:07:02.939Z,97488.94
2022-08-08T13:09:57.757Z,97482.63
2022-08-08T13:12:33.617Z,97482.13
2022-08-08T13:15:05.926Z,97482.41
2022-08-08T13:18:01.467Z,97483.09
2022-08-08T13:20:27.183Z,97475.28
2022-08-08T13:25:50.111Z,97475.88
2022-08-08T13:28:32.417Z,97466.34
2022-08-08T13:31:03.824Z,97469.59
2022-08-08T13:33:41.885Z,97460.78
2022-08-08T13:36:12.193Z,97462.88
2022-08-08T13:38:42.406Z,97455.41
2022-08-08T13:41:15.855Z,97465.81
2022-08-08T13:43:50.774Z,97458.19
2022-08-08T13:46:27.115Z,97455.13
2022-08-08T13:49:11.754Z,97450.63
2022-08-08T13:52:02.735Z,97455.47
2022-08-08T13:54:38.475Z,97447.78
2022-08-08T13:57:15.682Z,97447.31
2022-08-08T13:59:48.141Z,97452.34
2022-08-08T14:02:21.174Z,97450.25
2022-08-08T14:04:55.564Z,97436.94
2022-08-08T14:07:29.853Z,97443.16
2022-08-08T14:10:11.784Z,97446.69
2022-08-08T14:12:45.159Z,97438.13
2022-08-08T14:15:31.578Z,97435.41
2022-08-08T14:18:34.719Z,97442.03
2022-08-08T14:21:12.612Z,97440.22
2022-08-08T14:24:07.480Z,97432.06
2022-08-08T14:26:43.077Z,97432.47
2022-08-08T14:29:28.984Z,97428.44
2022-08-08T14:32:10.601Z,97433.81
2022-08-08T14:34:42.246Z,97434.97
2022-08-08T14:37:13.283Z,97431.91
2022-08-08T14:39:53.553Z,97442.97
2022-08-08T14:42:34.901Z,97435.28
2022-08-08T14:45:09.976Z,97431.84
2022-08-08T14:47:52.856Z,97431.59
2022-08-08T14:50:38.355Z,97421.88
2022-08-08T14:53:13.601Z,97425.81
2022-08-08T14:55:43.576Z,97421.84
2022-08-08T14:58:16.977Z,97427.22
2022-08-08T15:00:50.519Z,97427.13
2022-08-08T15:03:19.042Z,97424.63
2022-08-08T15:05:53.337Z,97433.88
2022-08-08T15:08:35.084Z,97425.84
2022-08-08T15:11:11.376Z,97423.72
2022-08-08T15:14:01.578Z,97417.69
2022-08-08T15:16:34.642Z,97423.13
2022-08-08T15:19:05.159Z,97418.81
2022-08-08T15:21:37.950Z,97423.25
2022-08-08T15:24:13.941Z,97416.28
2022-08-08T15:26:46.775Z,97417.44
2022-08-08T15:29:24.549Z,97420.56
2022-08-08T15:32:17.637Z,97419.22
2022-08-08T15:34:42.955Z,97416.25
2022-08-08T15:37:13.368Z,97429.31
2022-08-08T15:39:41.640Z,97417.00
2022-08-08T15:42:18.004Z,97422.63
2022-08-08T15:45:00.776Z,97419.25
2022-08-08T15:47:32.009Z,97416.03
2022-08-08T15:50:01.736Z,97423.91
2022-08-08T15:52:33.065Z,97418.19
2022-08-08T15:55:02.650Z,97422.47
2022-08-08T15:57:35.461Z,97423.09
2022-08-08T16:00:26.009Z,97420.91
2022-08-08T16:02:57.884Z,97418.50
2022-08-08T16:05:35.838Z,97408.69
2022-08-08T16:08:14.838Z,97408.41
2022-08-08T16:13:11.186Z,97415.84
2022-08-08T16:13:46.504Z,97422.41
2022-08-08T16:16:17.905Z,97406.06
2022-08-08T16:18:57.163Z,97415.09
2022-08-08T16:21:30.624Z,97411.63
2022-08-08T16:24:02.291Z,97400.53
2022-08-08T16:26:34.973Z,97405.00
2022-08-08T16:29:08.098Z,97409.63
2022-08-08T16:31:49.132Z,97417.84
2022-08-08T16:34:19.963Z,97416.38
2022-08-08T16:36:50.985Z,97406.72
2022-08-08T16:39:27.798Z,97404.94
2022-08-08T16:42:18.166Z,97409.69
2022-08-08T16:44:55.235Z,97408.47
2022-08-08T16:47:40.573Z,97413.41
2022-08-08T16:50:14.690Z,97414.59
2022-08-08T16:55:23.722Z,97406.16
2022-08-08T16:55:53.337Z,97414.34
2022-08-08T16:58:25.597Z,97414.94
2022-08-08T17:00:58.960Z,97418.28
2022-08-08T17:03:59.414Z,97419.28
2022-08-08T17:06:36.495Z,97413.53
2022-08-08T17:09:06.552Z,97414.31
2022-08-08T17:11:39.221Z,97426.59
2022-08-08T17:14:18.842Z,97417.53
2022-08-08T17:16:57.508Z,97418.81
2022-08-08T17:19:30.324Z,97428.38
2022-08-08T17:22:02.053Z,97426.16
2022-08-08T17:24:32.001Z,97433.06
2022-08-08T17:27:02.644Z,97429.75
2022-08-08T17:29:36.493Z,97434.47
2022-08-08T17:32:12.383Z,97435.28
2022-08-08T17:35:00.250Z,97442.06
2022-08-08T17:37:32.793Z,97455.44
2022-08-08T17:40:05.565Z,97447.19
2022-08-08T17:42:40.935Z,97450.47
2022-08-08T17:45:23.216Z,97451.16
2022-08-08T17:47:53.993Z,97454.13
2022-08-08T17:50:24.962Z,97455.38
2022-08-08T17:52:57.396Z,97455.91
2022-08-08T17:56:04.079Z,97473.19
2022-08-08T17:59:01.219Z,97468.16
2022-08-08T18:01:53.830Z,97464.75
2022-08-08T18:04:31.242Z,97470.03
2022-08-08T18:08:02.880Z,97472.88
2022-08-08T18:10:01.109Z,97474.91
2022-08-08T18:12:46.040Z,97476.97
2022-08-08T18:15:18.372Z,97482.66
2022-08-08T18:18:09.954Z,97476.72
2022-08-08T18:20:59.742Z,97487.50
2022-08-08T18:23:40.126Z,97484.72
2022-08-08T18:26:13.656Z,97491.47
2022-08-08T18:28:53.804Z,97492.97
2022-08-08T18:31:27.817Z,97494.09
2022-08-08T18:34:11.483Z,97496.41
2022-08-08T18:36:56.522Z,97495.69
2022-08-08T18:39:32.389Z,97500.56
2022-08-08T18:42:12.942Z,97501.66
2022-08-08T18:44:55.641Z,97502.56
2022-08-08T18:47:33.609Z,97505.38
2022-08-08T18:50:08.159Z,97502.19
2022-08-08T18:52:44.663Z,97517.59
2022-08-08T18:55:29.058Z,97513.28
2022-08-08T18:58:01.651Z,97525.94
2022-08-08T19:00:36.517Z,97531.44
2022-08-08T19:03:10.657Z,97530.09
2022-08-08T19:05:49.839Z,97532.28
2022-08-08T19:08:29.112Z,97538.56
2022-08-08T19:11:06.306Z,97537.75
2022-08-08T19:13:53.447Z,97539.41
2022-08-08T19:16:32.200Z,97543.84
2022-08-08T19:19:13.207Z,97546.75
2022-08-08T19:21:48.665Z,97551.19
2022-08-08T19:24:48.111Z,97549.56
2022-08-08T19:27:19.473Z,97558.69
2022-08-08T19:30:24.353Z,97566.81
2022-08-08T19:33:00.700Z,97562.03
2022-08-08T19:35:45.223Z,97562.44
2022-08-08T19:38:27.454Z,97570.84
2022-08-08T19:41:03.594Z,97581.03
2022-08-08T19:44:03.094Z,97578.38
2022-08-08T19:46:34.513Z,97581.44
2022-08-08T19:49:12.829Z,97581.03
2022-08-08T19:51:49.061Z,97579.88
2022-08-08T19:54:22.539Z,97580.06
2022-08-08T19:56:55.983Z,97584.38
2022-08-08T19:59:34.786Z,97581.50
2022-08-08T20:02:05.844Z,97585.56
2022-08-08T20:04:35.481Z,97584.47
2022-08-08T20:08:29.968Z,97587.28
2022-08-08T20:09:58.462Z,97593.31
2022-08-08T20:12:32.321Z,97591.47
2022-08-08T20:15:14.215Z,97588.44
2022-08-08T20:17:46.905Z,97590.84
2022-08-08T20:20:19.592Z,97589.06
2022-08-08T20:22:53.848Z,97591.06
2022-08-08T20:25:24.819Z,97591.06
2022-08-08T20:28:07.834Z,97595.09
2022-08-08T20:30:59.729Z,97596.19
2022-08-08T20:34:27.130Z,97593.06
2022-08-08T20:36:27.353Z,97591.06
2022-08-08T20:39:00.842Z,97595.00
2022-08-08T20:41:37.087Z,97602.84
2022-08-08T20:44:17.474Z,97606.63
2022-08-08T20:46:53.196Z,97603.78
2022-08-08T20:49:39.652Z,97595.44
2022-08-08T20:52:12.258Z,97599.13
2022-08-08T20:54:41.374Z,97603.63
2022-08-08T20:57:17.497Z,97603.25
2022-08-08T20:59:49.666Z,97614.81
2022-08-08T21:02:26.159Z,97607.09
2022-08-08T21:05:01.228Z,97603.97
2022-08-08T21:08:33.381Z,97602.47
2022-08-08T21:10:28.322Z,97604.03
2022-08-08T21:12:59.444Z,97606.16
2022-08-08T21:16:06.174Z,97605.69
2022-08-08T21:18:20.015Z,97608.56
2022-08-08T21:20:50.939Z,97616.19
2022-08-08T21:23:19.563Z,97611.22
2022-08-08T21:26:08.144Z,97607.16
2022-08-08T21:28:36.580Z,97605.47
2022-08-08T21:31:22.816Z,97612.16
2022-08-08T21:33:53.944Z,97616.78
2022-08-08T21:36:28.658Z,97612.53
2022-08-08T21:38:58.185Z,97610.38
2022-08-08T21:41:38.555Z,97606.13
2022-08-08T21:44:16.501Z,97611.41
2022-08-08T21:48:06.187Z,97609.03
2022-08-08T21:49:36.022Z,97614.88
2022-08-08T21:54:31.566Z,97621.53
2022-08-08T21:55:02.953Z,97613.38
2022-08-08T21:57:41.874Z,97619.16
2022-08-08T22:00:14.641Z,97613.19
2022-08-08T22:02:44.326Z,97611.00
2022-08-08T22:05:15.330Z,97610.84
2022-08-08T22:07:48.396Z,97614.19
2022-08-08T22:10:32.079Z,97613.84
2022-08-08T22:13:18.848Z,97611.41
2022-08-08T22:15:58.691Z,97614.19
2022-08-08T22:18:31.440Z,97614.50
2022-08-08T22:21:10.763Z,97615.78
2022-08-08T22:23:51.449Z,97614.53
2022-08-08T22:26:29.769Z,97617.38
2022-08-08T22:29:12.965Z,97622.22
2022-08-08T22:32:02.366Z,97616.03
2022-08-08T22:34:39.891Z,97615.78
2022-08-08T22:37:15.081Z,97615.09
2022-08-08T22:40:00.974Z,97620.66
2022-08-08T22:42:31.945Z,97620.06
2022-08-08T22:45:03.130Z,97623.38
2022-08-08T22:47:38.300Z,97627.44
2022-08-08T22:50:25.895Z,97625.69
2022-08-08T22:54:19.534Z,97623.03
2022-08-08T22:55:59.688Z,97626.03
2022-08-08T22:58:33.027Z,97634.88
2022-08-08T23:01:16.775Z,97628.91
2022-08-08T23:03:54.721Z,97622.47
2022-08-08T23:06:24.738Z,97628.44
2022-08-08T23:08:58.631Z,97618.69
2022-08-08T23:12:17.822Z,97617.53
2022-08-08T23:14:19.415Z,97619.13
2022-08-08T23:16:57.955Z,97618.09
2022-08-08T23:19:31.018Z,97614.56
2022-08-08T23:22:04.229Z,97615.34
2022-08-08T23:24:36.511Z,97613.63
2022-08-08T23:27:06.547Z,97615.59
2022-08-08T23:29:35.328Z,97619.97
2022-08-08T23:32:04.433Z,97617.31
2022-08-08T23:34:33.826Z,97620.97
2022-08-08T23:37:03.695Z,97620.88
2022-08-08T23:39:41.594Z,97618.34
2022-08-08T23:42:17.659Z,97619.97
2022-08-08T23:44:49.848Z,97615.94
2022-08-08T23:48:59.626Z,97619.97
2022-08-08T23:50:14.934Z,97619.25
2022-08-08T23:52:58.927Z,97624.31
2022-08-08T23:55:38.295Z,97616.03
2022-08-08T23:58:31.974Z,97622.00
